Time;durP1;ratioP1;P1;durP2;ratioP2;P2;SDS_P1;SDS_P2;PMS_P1;PMS_P2;Temp;Humidity;BMP_temperature;BMP_pressure;BME280_temperature;BME280_humidity;BME280_pressure;Samples;Min_cycle;Max_cycle;Signal;HPM_P1;HPM_P2
2021/12/15 00:09:18;;;;;;;37.63;18.70;;;8.30;99.90;;;;;;20840680;28;20540;-66
2021/12/15 00:19:20;;;;;;;32.33;17.20;;;8.40;99.90;;;;;;20839481;28;20231;-66
2021/12/15 00:29:24;;;;;;;33.63;18.00;;;8.40;99.90;;;;;;20838911;28;20244;-65
2021/12/15 00:39:27;;;;;;;33.40;17.50;;;8.30;99.90;;;;;;20838391;28;20243;-67
2021/12/15 00:49:29;;;;;;;35.53;17.97;;;8.20;99.90;;;;;;20837290;28;20219;-71
2021/12/15 00:59:32;;;;;;;37.30;17.43;;;8.10;99.90;;;;;;20836469;28;20759;-65
2021/12/15 01:09:45;;;;;;;32.93;16.03;;;8.20;99.90;;;;;;20835191;28;20259;-64
2021/12/15 01:19:58;;;;;;;32.10;16.43;;;8.20;99.90;;;;;;20834511;28;20246;-63
2021/12/15 01:30:00;;;;;;;34.07;15.10;;;8.10;99.90;;;;;;20832333;28;20724;-65
2021/12/15 01:47:08;;;;;;;30.10;14.73;;;7.90;99.90;;;;;;20984275;28;20584;-64
2021/12/15 01:57:12;;;;;;;23.90;13.53;;;7.90;99.90;;;;;;20983316;28;20603;-65
2021/12/15 02:07:17;;;;;;;25.80;14.10;;;7.90;99.90;;;;;;20983151;28;20658;-64
2021/12/15 02:17:19;;;;;;;27.63;13.90;;;7.90;99.90;;;;;;20930938;28;20205;-65
2021/12/15 02:27:21;;;;;;;26.20;14.10;;;7.90;99.90;;;;;;20898679;28;20570;-66
2021/12/15 02:37:24;;;;;;;29.07;14.60;;;8.00;99.90;;;;;;20897943;28;20215;-64
2021/12/15 02:47:28;;;;;;;24.77;13.47;;;8.10;99.90;;;;;;20897257;28;20268;-66
2021/12/15 02:57:30;;;;;;;26.67;13.73;;;8.10;99.90;;;;;;20846752;28;20232;-65
2021/12/15 03:07:49;;;;;;;34.47;16.30;;;8.10;99.90;;;;;;20841016;28;20212;-65
2021/12/15 03:17:56;;;;;;;36.63;15.80;;;8.10;99.90;;;;;;20839460;28;20233;-64
2021/12/15 03:38:18;;;;;;;41.60;18.43;;;8.10;99.90;;;;;;20838755;28;20289;-66
2021/12/15 03:48:24;;;;;;;41.03;17.80;;;8.00;99.90;;;;;;20837588;28;20566;-63
2021/12/15 03:58:26;;;;;;;38.47;17.03;;;7.90;99.90;;;;;;20836692;28;20243;-64
2021/12/15 04:08:30;;;;;;;29.37;15.33;;;8.00;99.90;;;;;;20835352;28;20208;-65
2021/12/15 04:18:32;;;;;;;31.67;15.50;;;8.10;99.90;;;;;;20835068;28;20698;-70
2021/12/15 04:28:35;;;;;;;29.80;15.10;;;8.20;99.90;;;;;;20834280;28;20238;-69
2021/12/15 04:38:38;;;;;;;32.63;14.90;;;8.20;99.90;;;;;;20833667;28;20649;-67
2021/12/15 04:48:41;;;;;;;29.87;14.93;;;8.20;99.90;;;;;;20832965;28;20621;-64
2021/12/15 04:58:43;;;;;;;31.03;14.67;;;8.30;99.90;;;;;;20831981;28;20236;-64
2021/12/15 05:08:44;;;;;;;30.80;14.97;;;8.20;99.90;;;;;;20831874;28;20211;-64
2021/12/15 05:18:47;;;;;;;33.67;15.20;;;8.20;99.90;;;;;;20830104;28;20273;-65
2021/12/15 05:28:51;;;;;;;38.50;16.03;;;8.30;99.90;;;;;;20828256;28;20663;-70
2021/12/15 05:38:53;;;;;;;27.73;14.10;;;8.30;99.90;;;;;;20829644;28;20240;-64
2021/12/15 05:48:55;;;;;;;33.77;15.43;;;8.20;99.90;;;;;;20828515;28;20216;-65
2021/12/15 05:58:57;;;;;;;38.00;15.63;;;8.30;99.90;;;;;;20826579;28;20234;-71
2021/12/15 06:09:00;;;;;;;37.70;21.15;;;8.30;99.90;;;;;;20822659;28;20459;-72
2021/12/15 06:19:03;;;;;;;35.37;16.40;;;8.90;99.90;;;;;;20828083;28;20241;-67
2021/12/15 06:29:05;;;;;;;29.37;14.97;;;8.30;99.90;;;;;;20835145;28;20265;-67
2021/12/15 06:39:07;;;;;;;34.17;14.97;;;8.20;99.90;;;;;;20841710;28;20719;-70
2021/12/15 06:59:29;;;;;;;32.07;14.93;;;8.10;99.90;;;;;;20840803;28;20231;-65
2021/12/15 07:09:33;;;;;;;22.87;12.13;;;8.10;99.90;;;;;;20839269;28;20734;-65
2021/12/15 07:20:02;;;;;;;28.73;16.50;;;8.20;99.90;;;;;;20834744;28;20465;-65
2021/12/15 07:29:57;;;;;;;19.20;11.67;;;8.40;99.90;;;;;;20835719;28;20808;-65
2021/12/15 07:40:01;;;;;;;21.80;12.23;;;8.30;99.90;;;;;;20837129;28;20298;-66
2021/12/15 07:50:04;;;;;;;24.00;11.97;;;8.30;99.90;;;;;;20836935;28;20214;-66
2021/12/15 08:00:09;;;;;;;22.17;11.50;;;8.30;99.90;;;;;;20835979;28;20239;-71
2021/12/15 08:10:12;;;;;;;24.23;11.73;;;8.20;99.90;;;;;;20835323;28;20211;-65
2021/12/15 08:20:15;;;;;;;20.00;10.93;;;8.30;99.90;;;;;;20835347;28;20692;-64
2021/12/15 08:30:24;;;;;;;21.83;12.40;;;8.50;99.90;;;;;;20833301;28;20222;-65
2021/12/15 08:40:29;;;;;;;23.43;12.33;;;8.60;99.90;;;;;;20832362;28;20732;-66
2021/12/15 08:50:33;;;;;;;20.70;12.30;;;8.60;99.90;;;;;;20831845;28;20228;-65
2021/12/15 09:00:35;;;;;;;22.30;12.33;;;8.60;99.90;;;;;;20831263;28;20234;-65
2021/12/15 09:10:40;;;;;;;21.43;13.07;;;8.70;99.90;;;;;;20832393;28;20223;-66
2021/12/15 09:20:44;;;;;;;22.00;12.93;;;8.80;99.90;;;;;;20833468;28;20239;-69
2021/12/15 09:30:47;;;;;;;22.80;12.43;;;8.90;99.90;;;;;;20828287;28;20266;-71
2021/12/15 09:40:53;;;;;;;21.30;12.87;;;8.90;99.90;;;;;;20829550;28;20244;-71
2021/12/15 10:17:25;;;;;;;21.70;13.10;;;9.30;99.90;;;;;;20844550;28;20218;-71
2021/12/15 10:22:25;;;;;;;29.37;16.20;;;9.40;99.90;;;;;;20839063;28;20232;-72
2021/12/15 10:32:32;;;;;;;27.03;16.87;;;9.60;99.90;;;;;;20842688;28;20205;-69
2021/12/15 10:42:34;;;;;;;25.90;14.40;;;9.70;99.80;;;;;;20841750;28;20772;-70
2021/12/15 10:52:49;;;;;;;21.70;14.13;;;9.80;99.80;;;;;;20841279;28;20208;-68
2021/12/15 11:03:00;;;;;;;16.93;11.90;;;9.90;99.70;;;;;;20840219;28;20254;-72
2021/12/15 11:13:08;;;;;;;16.90;11.07;;;9.90;99.90;;;;;;20839143;28;20213;-71
2021/12/15 11:23:16;;;;;;;10.83;8.00;;;10.00;98.90;;;;;;20838348;28;20282;-67
2021/12/15 11:33:24;;;;;;;11.80;9.37;;;9.80;98.50;;;;;;20835130;28;20267;-66
2021/12/15 11:43:38;;;;;;;12.10;7.63;;;9.90;98.60;;;;;;20836822;28;20298;-66
2021/12/15 11:53:45;;;;;;;11.60;8.23;;;9.80;98.00;;;;;;20836430;28;20204;-67
2021/12/15 12:04:09;;;;;;;11.23;7.33;;;9.80;98.00;;;;;;20836323;28;20695;-67
2021/12/15 12:14:19;;;;;;;11.27;8.17;;;10.20;97.50;;;;;;20834983;28;20605;-70
2021/12/15 12:24:20;;;;;;;15.37;8.23;;;10.10;97.10;;;;;;20862422;28;20231;-65
2021/12/15 12:34:22;;;;;;;16.50;8.50;;;10.00;97.20;;;;;;20869713;28;20217;-68
2021/12/15 12:44:33;;;;;;;12.40;8.30;;;10.10;97.30;;;;;;20832273;28;20236;-68
2021/12/15 13:04:57;;;;;;;9.73;7.13;;;10.20;96.80;;;;;;20858760;28;20232;-66
2021/12/15 13:14:59;;;;;;;12.93;8.47;;;10.20;97.10;;;;;;20830185;28;20208;-66
2021/12/15 13:35:46;;;;;;;9.83;7.73;;;10.20;96.50;;;;;;20829425;28;20205;-67
2021/12/15 13:45:50;;;;;;;7.77;5.77;;;10.20;96.90;;;;;;20828747;28;20249;-66
2021/12/15 13:55:51;;;;;;;8.30;6.67;;;10.00;96.70;;;;;;20827932;28;20297;-71
2021/12/15 14:06:24;;;;;;;8.67;6.60;;;10.00;96.70;;;;;;20828658;28;20255;-71
2021/12/15 14:16:34;;;;;;;10.23;7.83;;;10.00;96.70;;;;;;20828033;28;20207;-70
2021/12/15 14:26:37;;;;;;;10.07;7.90;;;10.00;96.70;;;;;;20827591;28;20274;-72
2021/12/15 14:36:46;;;;;;;9.13;7.23;;;10.00;96.70;;;;;;20827842;28;20262;-64
2021/12/15 14:46:56;;;;;;;12.90;9.30;;;10.00;96.80;;;;;;20827535;28;20453;-64
2021/12/15 14:57:04;;;;;;;9.00;7.17;;;10.00;96.90;;;;;;20839314;28;20270;-66
2021/12/15 15:07:10;;;;;;;10.57;8.43;;;10.00;97.40;;;;;;20840536;28;20239;-64
2021/12/15 15:17:32;;;;;;;11.20;8.27;;;9.90;97.70;;;;;;20839579;28;20208;-64
2021/12/15 15:27:37;;;;;;;11.63;8.77;;;9.80;98.10;;;;;;20855639;28;20571;-65
2021/12/15 15:37:39;;;;;;;16.37;10.67;;;9.80;98.10;;;;;;20917148;28;20252;-66
2021/12/15 15:47:43;;;;;;;15.63;10.50;;;9.70;98.40;;;;;;20845693;28;20236;-68
2021/12/15 15:57:56;;;;;;;14.97;11.57;;;9.70;98.70;;;;;;20835754;28;20233;-66
2021/12/15 16:07:58;;;;;;;19.33;10.30;;;9.70;99.00;;;;;;20836252;28;20643;-70
2021/12/15 16:17:59;;;;;;;18.00;11.57;;;9.70;99.20;;;;;;20855633;28;20207;-75
2021/12/15 16:28:09;;;;;;;16.20;12.43;;;9.70;99.40;;;;;;20915880;28;20282;-72
2021/12/15 16:38:28;;;;;;;20.70;13.50;;;9.70;99.50;;;;;;20915393;28;20239;-69
2021/12/15 16:48:33;;;;;;;20.40;12.93;;;9.80;99.70;;;;;;20915406;28;20279;-71
2021/12/15 16:58:35;;;;;;;16.60;12.20;;;9.70;99.40;;;;;;20914568;28;20660;-70
2021/12/15 17:08:41;;;;;;;18.57;13.17;;;9.60;99.60;;;;;;20912906;28;20212;-69
2021/12/15 17:18:47;;;;;;;16.53;12.17;;;9.70;99.90;;;;;;20885552;28;20196;-78
2021/12/15 17:28:59;;;;;;;20.83;14.40;;;9.60;99.80;;;;;;20832037;28;20220;-74
2021/12/15 17:39:21;;;;;;;18.57;13.23;;;9.70;99.90;;;;;;20829740;28;20244;-68
2021/12/15 17:49:27;;;;;;;19.70;13.93;;;9.70;99.90;;;;;;20829467;28;20224;-73
2021/12/15 17:59:30;;;;;;;20.60;15.10;;;9.70;99.90;;;;;;20830219;28;20236;-72
2021/12/15 18:09:34;;;;;;;23.03;15.73;;;9.70;99.90;;;;;;20828338;28;20250;-68
2021/12/15 18:19:37;;;;;;;25.43;18.13;;;9.50;99.90;;;;;;20862957;28;20681;-72
2021/12/15 18:29:43;;;;;;;29.27;18.77;;;9.40;99.90;;;;;;20925773;28;20218;-70
2021/12/15 18:39:48;;;;;;;26.80;17.20;;;9.50;99.90;;;;;;20925455;28;20251;-78
2021/12/15 18:49:57;;;;;;;20.70;13.93;;;9.50;99.90;;;;;;20925288;28;20211;-75
2021/12/15 18:59:59;;;;;;;23.27;15.77;;;9.40;99.90;;;;;;20921739;28;20296;-71
2021/12/15 19:10:03;;;;;;;19.70;13.77;;;9.30;99.90;;;;;;20968297;28;20207;-78
2021/12/15 19:20:18;;;;;;;26.20;15.90;;;9.30;99.90;;;;;;20940967;28;20700;-74
2021/12/15 19:30:25;;;;;;;24.07;15.07;;;9.30;99.90;;;;;;20838829;28;20266;-71
2021/12/15 19:40:27;;;;;;;26.70;18.47;;;9.40;99.90;;;;;;20833033;28;20511;-73
2021/12/15 19:50:30;;;;;;;22.20;14.60;;;9.80;99.90;;;;;;20837740;28;20210;-73
2021/12/15 20:00:35;;;;;;;24.37;16.87;;;9.40;99.90;;;;;;20834571;28;20243;-74
2021/12/15 20:10:39;;;;;;;26.57;19.73;;;9.40;99.90;;;;;;20831073;28;20442;-71
2021/12/15 20:20:47;;;;;;;26.23;16.87;;;10.00;99.90;;;;;;20882410;28;20316;-72
2021/12/15 20:30:54;;;;;;;24.80;15.63;;;9.40;99.90;;;;;;20916841;28;20204;-72
2021/12/15 20:40:56;;;;;;;31.43;16.77;;;9.30;99.90;;;;;;20915925;28;20271;-71
2021/12/15 20:51:02;;;;;;;28.50;18.07;;;9.40;99.90;;;;;;20915280;28;20204;-75
2021/12/15 21:01:06;;;;;;;32.43;21.77;;;9.30;99.90;;;;;;20912520;28;20452;-75
2021/12/15 21:11:14;;;;;;;28.97;18.63;;;9.40;99.90;;;;;;20913910;28;20297;-74
2021/12/15 21:21:17;;;;;;;28.53;17.63;;;9.30;99.90;;;;;;20865854;28;20282;-71
2021/12/15 21:31:19;;;;;;;32.13;18.73;;;9.20;99.90;;;;;;20895354;28;20656;-71
2021/12/15 21:41:21;;;;;;;33.30;19.30;;;9.30;99.90;;;;;;20912078;28;20259;-71
2021/12/15 21:51:22;;;;;;;24.40;17.57;;;9.30;99.90;;;;;;20912567;28;20215;-71
2021/12/15 22:01:24;;;;;;;22.63;14.87;;;9.30;99.90;;;;;;20924288;28;20756;-75
2021/12/15 22:11:26;;;;;;;21.97;14.27;;;9.30;99.90;;;;;;20928441;28;20294;-72
2021/12/15 22:21:36;;;;;;;22.80;14.23;;;9.30;99.90;;;;;;20924395;28;20699;-73
2021/12/15 22:31:41;;;;;;;22.20;14.30;;;9.30;99.90;;;;;;20926555;28;20556;-74
2021/12/15 22:41:46;;;;;;;22.20;14.50;;;9.30;99.90;;;;;;20925665;28;20240;-74
2021/12/15 22:51:51;;;;;;;23.93;14.43;;;9.30;99.90;;;;;;20907931;28;20659;-75
2021/12/15 23:01:58;;;;;;;21.00;14.37;;;9.30;99.90;;;;;;20924121;28;20262;-75
2021/12/15 23:22:08;;;;;;;22.97;13.90;;;9.20;99.90;;;;;;20882687;28;20240;-72
2021/12/15 23:32:15;;;;;;;21.80;13.13;;;9.30;99.90;;;;;;20941820;28;20230;-71
2021/12/15 23:42:48;;;;;;;23.10;13.77;;;9.20;99.70;;;;;;20949877;28;20285;-72
